Tidworth, United Kingdom
Current Conditions -  °F | °C
As of 12:50 AM on Saturday 25 Oct 2014 (Local Time) from EGDM Reporting Station
Broken Clouds Broken Clouds  
Wind Chill: 44°   Ceiling: 3500
Heat Index: 46°   Visibility: 4mi
Dew Point: 46°   Wind: 6mph
Humidity: 100%   Direction: 200°SSW
Pressure: 30"   Gusts: NA
Location:  51.23°N, 1.67°W
Report Text: EGDM 242350Z AUTO 20005KT 7000 FEW002/// BKN035/// 08/08 Q1016
Loading
Personal Weather Stations






























Interactive Weather Map
Tropical Storm Tracking
New forecast layout! Learn more

10-Day Weather Forecast

Advertisements
Track Severe Weather on mobile